Time;durP1;ratioP1;P1;durP2;ratioP2;P2;SDS_P1;SDS_P2;PMS_P1;PMS_P2;Temp;Humidity;BMP_temperature;BMP_pressure;BME280_temperature;BME280_humidity;BME280_pressure;Samples;Min_cycle;Max_cycle;Signal;HPM_P1;HPM_P2
2023/05/02 00:02:04;;;;;;;3.25;2.67;;;18.40;52.70;;;;;;6121624;23;20144;-85
2023/05/02 00:04:30;;;;;;;3.20;2.90;;;18.40;52.70;;;;;;6122439;23;20172;-84
2023/05/02 00:06:56;;;;;;;3.92;2.88;;;18.40;52.80;;;;;;6224048;23;20143;-85
2023/05/02 00:09:21;;;;;;;5.45;3.10;;;18.30;52.80;;;;;;6122606;23;20172;-84
2023/05/02 00:11:47;;;;;;;3.80;2.85;;;18.30;52.70;;;;;;6122098;23;20190;-83
2023/05/02 00:14:13;;;;;;;3.35;2.80;;;18.40;52.80;;;;;;6223823;23;20140;-84
2023/05/02 00:16:39;;;;;;;2.97;2.60;;;18.30;53.30;;;;;;6122095;23;20676;-82
2023/05/02 00:19:05;;;;;;;3.33;2.70;;;18.40;52.50;;;;;;6122188;23;20610;-83
2023/05/02 00:21:32;;;;;;;3.65;3.00;;;18.30;52.60;;;;;;6224487;23;20227;-84
2023/05/02 00:23:58;;;;;;;3.38;3.03;;;18.40;52.70;;;;;;6223620;23;20165;-82
2023/05/02 00:26:25;;;;;;;4.13;2.75;;;18.40;52.70;;;;;;6122313;23;20143;-83
2023/05/02 00:28:51;;;;;;;4.35;3.03;;;18.40;52.80;;;;;;6122281;23;20590;-82
2023/05/02 00:31:17;;;;;;;5.35;2.90;;;18.40;52.80;;;;;;6121894;23;20223;-83
2023/05/02 00:33:43;;;;;;;4.15;3.05;;;18.40;52.80;;;;;;6223536;23;20191;-85
2023/05/02 00:36:17;;;;;;;4.05;2.95;;;18.40;52.80;;;;;;6121870;23;20137;-84
2023/05/02 00:38:43;;;;;;;3.50;2.80;;;18.30;52.80;;;;;;6198265;23;20163;-84
2023/05/02 00:41:09;;;;;;;4.55;2.97;;;18.30;52.80;;;;;;6121972;23;20144;-83
2023/05/02 00:43:36;;;;;;;4.13;2.80;;;18.30;52.80;;;;;;6121725;23;20219;-85
2023/05/02 00:46:02;;;;;;;4.18;2.70;;;18.40;52.70;;;;;;6223470;23;20163;-83
2023/05/02 00:48:28;;;;;;;4.65;3.10;;;18.40;52.60;;;;;;6223462;23;20152;-84
2023/05/02 00:50:53;;;;;;;5.03;2.90;;;18.40;52.70;;;;;;6122033;23;20147;-84
2023/05/02 00:53:20;;;;;;;4.90;3.15;;;18.30;52.60;;;;;;6223576;23;20471;-84
2023/05/02 00:55:48;;;;;;;5.20;3.20;;;18.30;52.70;;;;;;6122017;23;20145;-85
2023/05/02 00:58:15;;;;;;;3.15;2.65;;;18.30;52.80;;;;;;6221668;23;20135;-83
2023/05/02 01:01:09;;;;;;;4.75;3.20;;;18.30;52.70;;;;;;6121847;23;20187;-83
2023/05/02 01:04:15;;;;;;;3.65;2.50;;;18.30;52.80;;;;;;6121986;23;20136;-84
2023/05/02 01:07:01;;;;;;;3.92;2.90;;;18.30;52.80;;;;;;6190187;23;20159;-82
2023/05/02 01:09:39;;;;;;;4.35;2.90;;;18.30;52.70;;;;;;6122059;23;20191;-85
2023/05/02 01:12:40;;;;;;;3.20;2.67;;;18.30;52.60;;;;;;6122002;23;20132;-84
2023/05/02 01:15:10;;;;;;;3.63;2.95;;;18.30;52.60;;;;;;6122931;23;20478;-85
2023/05/02 01:17:36;;;;;;;3.85;2.90;;;18.30;52.50;;;;;;6225034;23;20576;-84
2023/05/02 01:20:05;;;;;;;4.00;2.80;;;18.40;52.80;;;;;;6225354;23;20163;-82
2023/05/02 01:22:31;;;;;;;5.00;2.60;;;18.30;52.70;;;;;;6123198;23;20144;-84
2023/05/02 01:25:31;;;;;;;3.58;2.95;;;18.30;52.80;;;;;;6123211;23;20171;-85
2023/05/02 01:28:16;;;;;;;4.32;2.97;;;18.30;52.70;;;;;;6123394;23;20145;-83
2023/05/02 01:30:43;;;;;;;3.67;3.00;;;18.30;52.60;;;;;;6225220;23;20220;-85
2023/05/02 01:33:11;;;;;;;4.05;2.90;;;18.30;52.80;;;;;;6122637;22;20128;-83
2023/05/02 01:35:37;;;;;;;3.85;2.75;;;18.30;52.80;;;;;;6224138;23;20148;-85
2023/05/02 01:38:03;;;;;;;4.05;2.88;;;18.30;52.80;;;;;;6123251;23;20209;-82
2023/05/02 01:40:29;;;;;;;3.53;2.90;;;18.20;52.80;;;;;;6123241;23;20144;-85
2023/05/02 01:42:55;;;;;;;3.33;2.88;;;18.30;52.60;;;;;;6123084;23;20140;-83
2023/05/02 01:45:21;;;;;;;5.40;2.90;;;18.30;52.70;;;;;;6225385;23;20493;-82
2023/05/02 01:47:47;;;;;;;3.70;3.08;;;18.30;52.70;;;;;;6225096;23;20143;-84
2023/05/02 01:50:15;;;;;;;4.68;2.83;;;18.30;52.70;;;;;;6122836;23;20441;-84
2023/05/02 01:52:41;;;;;;;3.55;2.88;;;18.30;52.80;;;;;;6122895;23;20567;-84
2023/05/02 01:55:10;;;;;;;4.13;2.80;;;18.30;52.80;;;;;;6123109;23;20140;-85
2023/05/02 01:57:36;;;;;;;4.50;3.03;;;18.20;52.70;;;;;;6123118;23;20141;-85
2023/05/02 02:00:02;;;;;;;3.22;2.80;;;18.20;52.80;;;;;;6225180;23;20136;-84
2023/05/02 02:02:28;;;;;;;3.35;2.72;;;18.30;52.80;;;;;;6123197;23;20133;-83
2023/05/02 02:04:55;;;;;;;3.35;2.55;;;18.30;52.70;;;;;;6122867;23;20191;-84
2023/05/02 02:07:21;;;;;;;3.83;2.80;;;18.30;52.60;;;;;;6122799;23;20599;-85
2023/05/02 02:09:47;;;;;;;3.50;2.90;;;18.30;52.70;;;;;;6123054;23;20553;-83
2023/05/02 02:12:20;;;;;;;3.53;2.75;;;18.30;52.70;;;;;;6123225;23;20152;-86
2023/05/02 02:14:50;;;;;;;3.13;2.63;;;18.30;52.50;;;;;;6224930;23;20564;-83
2023/05/02 02:17:21;;;;;;;3.60;2.60;;;18.20;52.60;;;;;;6224744;23;20214;-84
2023/05/02 02:19:47;;;;;;;3.75;2.72;;;18.30;52.70;;;;;;6122766;23;20241;-83
2023/05/02 02:22:13;;;;;;;3.40;2.85;;;18.30;52.60;;;;;;6122661;23;20164;-85
2023/05/02 02:24:39;;;;;;;3.63;2.80;;;18.20;52.60;;;;;;6122376;23;20611;-83
2023/05/02 02:27:05;;;;;;;3.10;2.63;;;18.20;52.70;;;;;;6224249;23;20653;-82
2023/05/02 02:29:31;;;;;;;3.78;2.53;;;18.30;52.70;;;;;;6122680;23;20132;-84
2023/05/02 02:31:57;;;;;;;3.45;2.83;;;18.30;52.50;;;;;;6224443;23;20185;-83
2023/05/02 02:34:23;;;;;;;3.33;2.70;;;18.30;52.60;;;;;;6122442;22;20270;-83
2023/05/02 02:36:55;;;;;;;4.15;3.10;;;18.30;52.60;;;;;;6122675;23;20230;-85
2023/05/02 02:39:48;;;;;;;3.20;2.63;;;18.30;52.60;;;;;;6122659;23;20164;-85
2023/05/02 02:42:35;;;;;;;3.33;2.85;;;18.30;52.50;;;;;;6207596;23;20476;-85
2023/05/02 02:45:31;;;;;;;3.88;2.83;;;18.30;52.60;;;;;;6122805;23;20168;-82
2023/05/02 02:48:19;;;;;;;3.78;2.90;;;18.20;53.50;;;;;;6207865;23;20137;-83
2023/05/02 02:50:58;;;;;;;2.95;2.65;;;18.20;52.40;;;;;;6199148;23;20144;-85
2023/05/02 02:53:26;;;;;;;3.80;2.60;;;18.20;52.70;;;;;;6224371;23;20136;-84
2023/05/02 02:55:57;;;;;;;3.47;3.13;;;18.30;52.50;;;;;;6199202;23;20159;-83
2023/05/02 02:58:30;;;;;;;4.75;2.80;;;18.30;52.70;;;;;;6122601;23;20224;-84
2023/05/02 03:00:58;;;;;;;3.72;2.83;;;18.20;52.50;;;;;;6224180;23;20199;-82
2023/05/02 03:03:27;;;;;;;2.88;2.50;;;18.20;52.60;;;;;;6224721;23;20144;-83
2023/05/02 03:05:55;;;;;;;3.83;2.80;;;18.30;52.50;;;;;;6122689;23;20147;-83
2023/05/02 03:08:21;;;;;;;3.47;2.53;;;18.30;52.50;;;;;;6122537;23;20220;-84
2023/05/02 03:10:47;;;;;;;3.72;2.92;;;18.30;52.30;;;;;;6122612;23;20140;-85
2023/05/02 03:13:13;;;;;;;3.30;2.72;;;18.30;52.60;;;;;;6122749;23;20142;-84
2023/05/02 03:16:13;;;;;;;3.78;2.78;;;18.30;52.40;;;;;;6122688;23;20132;-84
2023/05/02 03:18:39;;;;;;;3.08;2.50;;;18.20;52.60;;;;;;6195878;23;20162;-85
2023/05/02 03:21:05;;;;;;;4.93;2.70;;;18.30;52.60;;;;;;6122473;23;20463;-84
2023/05/02 03:23:31;;;;;;;3.25;2.67;;;18.30;52.50;;;;;;6223933;23;20522;-85
2023/05/02 03:25:57;;;;;;;4.65;3.08;;;18.30;52.40;;;;;;6224228;23;20629;-84
2023/05/02 03:28:23;;;;;;;5.30;3.05;;;18.20;52.50;;;;;;6122370;23;20155;-83
2023/05/02 03:30:49;;;;;;;3.63;2.75;;;18.20;52.50;;;;;;6122424;23;20457;-83
2023/05/02 03:33:15;;;;;;;2.70;2.42;;;18.30;52.60;;;;;;6224097;22;20129;-84
2023/05/02 03:35:41;;;;;;;3.40;2.83;;;18.20;52.30;;;;;;6223503;23;20162;-82
2023/05/02 03:38:07;;;;;;;4.60;2.90;;;18.20;52.50;;;;;;6224319;23;20136;-82
2023/05/02 03:40:33;;;;;;;5.80;2.67;;;18.30;52.50;;;;;;6223618;23;20132;-84
2023/05/02 03:42:59;;;;;;;3.67;2.58;;;18.30;52.60;;;;;;6122412;23;20218;-84
2023/05/02 03:45:25;;;;;;;3.22;2.72;;;18.30;52.50;;;;;;6224223;23;20185;-82
2023/05/02 03:47:51;;;;;;;3.05;2.63;;;18.20;52.60;;;;;;6223701;23;20245;-83
2023/05/02 03:50:18;;;;;;;3.92;3.05;;;18.20;52.70;;;;;;6224144;23;20564;-83
2023/05/02 03:52:43;;;;;;;2.85;2.55;;;18.20;52.50;;;;;;6224095;23;20164;-84
2023/05/02 03:55:10;;;;;;;4.93;2.85;;;18.20;52.40;;;;;;6122395;23;20139;-83
2023/05/02 03:57:36;;;;;;;3.10;2.80;;;18.30;52.50;;;;;;6122489;23;20220;-83
2023/05/02 04:00:02;;;;;;;4.10;2.78;;;18.20;52.50;;;;;;6122472;23;20160;-83
2023/05/02 04:02:29;;;;;;;3.70;2.72;;;18.20;52.60;;;;;;6223792;23;20148;-83
2023/05/02 04:04:55;;;;;;;4.35;2.88;;;18.30;52.60;;;;;;6122510;23;20487;-83
2023/05/02 04:07:21;;;;;;;3.50;2.38;;;18.30;52.60;;;;;;6122287;23;20144;-83
2023/05/02 04:09:47;;;;;;;3.33;2.63;;;18.20;52.50;;;;;;6122222;23;20202;-82
2023/05/02 04:12:17;;;;;;;3.30;2.50;;;18.20;52.50;;;;;;6224072;23;20559;-83
2023/05/02 04:14:43;;;;;;;3.25;2.55;;;18.20;52.60;;;;;;6172966;23;20156;-82
2023/05/02 04:17:09;;;;;;;3.40;2.67;;;18.20;52.50;;;;;;6224344;23;20194;-85
2023/05/02 04:19:35;;;;;;;3.42;2.60;;;18.20;52.50;;;;;;6122057;23;20140;-85
2023/05/02 04:22:02;;;;;;;3.85;2.90;;;18.20;52.60;;;;;;6223998;23;20572;-82
2023/05/02 04:24:28;;;;;;;4.18;2.42;;;18.20;52.50;;;;;;6122171;23;20592;-82
2023/05/02 04:26:54;;;;;;;3.40;2.92;;;18.20;52.30;;;;;;6223466;23;20186;-86
2023/05/02 04:29:20;;;;;;;5.28;2.40;;;18.30;52.50;;;;;;6122049;23;20137;-83
2023/05/02 04:31:46;;;;;;;2.60;2.40;;;18.30;52.40;;;;;;6224083;23;20587;-83
2023/05/02 04:34:11;;;;;;;4.95;2.70;;;18.20;52.40;;;;;;6121895;22;20203;-84
2023/05/02 04:36:37;;;;;;;5.43;2.65;;;18.30;52.50;;;;;;6122057;23;20227;-82
2023/05/02 04:39:06;;;;;;;3.75;3.03;;;18.20;52.40;;;;;;6223424;23;20179;-84
2023/05/02 04:41:32;;;;;;;3.72;2.88;;;18.30;52.50;;;;;;6223607;23;20187;-83
2023/05/02 04:43:58;;;;;;;3.55;2.63;;;18.20;52.60;;;;;;6223460;23;20515;-85
2023/05/02 04:46:24;;;;;;;5.20;2.65;;;18.20;52.50;;;;;;6223870;23;20224;-82
2023/05/02 04:48:50;;;;;;;2.50;2.30;;;18.10;53.10;;;;;;6122967;23;20136;-84
2023/05/02 04:51:16;;;;;;;3.38;2.35;;;18.20;52.50;;;;;;6123219;23;20227;-83
2023/05/02 04:53:42;;;;;;;2.90;2.60;;;18.20;52.40;;;;;;6225360;23;20148;-84
2023/05/02 04:56:08;;;;;;;3.83;2.90;;;18.20;52.50;;;;;;6225871;23;20149;-84
2023/05/02 04:58:34;;;;;;;3.55;2.63;;;18.30;52.50;;;;;;6123020;23;20139;-84
2023/05/02 05:01:00;;;;;;;3.50;2.40;;;18.20;52.40;;;;;;6123006;23;20136;-85
2023/05/02 05:03:29;;;;;;;3.65;2.80;;;18.30;52.40;;;;;;6123455;23;20145;-83
2023/05/02 05:05:55;;;;;;;3.42;2.58;;;18.20;52.40;;;;;;6223312;23;20197;-85
2023/05/02 05:08:21;;;;;;;3.97;2.75;;;18.20;52.50;;;;;;6225506;23;20573;-82
2023/05/02 05:10:47;;;;;;;3.88;3.03;;;18.20;52.50;;;;;;6123083;23;20140;-84
2023/05/02 05:13:13;;;;;;;3.97;2.88;;;18.20;52.50;;;;;;6123017;23;20136;-84
2023/05/02 05:15:39;;;;;;;2.80;2.50;;;18.20;52.40;;;;;;6123203;23;20136;-83
2023/05/02 05:18:05;;;;;;;2.83;2.40;;;18.20;52.40;;;;;;6225174;23;20194;-85
2023/05/02 05:20:32;;;;;;;3.30;2.50;;;18.20;52.40;;;;;;6122973;23;20175;-84
2023/05/02 05:22:58;;;;;;;3.58;2.80;;;18.20;52.50;;;;;;6224868;23;20587;-85
2023/05/02 05:25:26;;;;;;;2.88;2.60;;;18.20;52.40;;;;;;6225513;23;20168;-83
2023/05/02 05:27:54;;;;;;;2.72;2.40;;;18.20;52.40;;;;;;6200023;23;20148;-83
2023/05/02 05:30:20;;;;;;;3.22;2.50;;;18.20;52.50;;;;;;6200166;23;20154;-82
2023/05/02 05:32:45;;;;;;;3.30;2.67;;;18.20;52.60;;;;;;6122811;23;20219;-84
2023/05/02 05:35:12;;;;;;;3.45;2.45;;;18.20;52.60;;;;;;6225274;23;20227;-85
2023/05/02 05:37:38;;;;;;;3.90;2.42;;;18.20;52.40;;;;;;6225150;23;20603;-84
2023/05/02 05:40:06;;;;;;;3.63;2.55;;;18.20;52.50;;;;;;6122921;23;20186;-84
2023/05/02 05:42:32;;;;;;;2.83;2.30;;;18.20;52.50;;;;;;6225182;23;20226;-83
2023/05/02 05:44:58;;;;;;;3.38;2.47;;;18.20;52.50;;;;;;6225307;23;20199;-82
2023/05/02 05:47:24;;;;;;;2.95;2.65;;;18.20;52.50;;;;;;6225552;23;20274;-85
2023/05/02 05:49:52;;;;;;;2.80;2.50;;;18.20;52.30;;;;;;6122929;23;20511;-84
2023/05/02 05:52:18;;;;;;;2.80;2.50;;;18.20;52.30;;;;;;6123036;23;20519;-83
2023/05/02 05:54:44;;;;;;;3.05;2.65;;;18.20;52.50;;;;;;6225203;23;20137;-83
2023/05/02 05:57:10;;;;;;;3.80;2.80;;;18.20;52.40;;;;;;6123188;23;20583;-82
2023/05/02 05:59:36;;;;;;;2.72;2.50;;;18.20;52.30;;;;;;6122296;23;20155;-82
2023/05/02 06:02:02;;;;;;;3.88;2.88;;;18.20;52.40;;;;;;6122848;23;20219;-85
2023/05/02 06:04:28;;;;;;;2.95;2.63;;;18.20;52.40;;;;;;6224848;23;20188;-84
2023/05/02 06:06:55;;;;;;;2.60;2.40;;;18.20;52.40;;;;;;6122751;23;20132;-83
2023/05/02 06:09:20;;;;;;;2.47;2.22;;;18.20;52.50;;;;;;6123070;23;20164;-84
2023/05/02 06:11:46;;;;;;;3.80;2.70;;;18.20;52.50;;;;;;6123126;23;20136;-84
2023/05/02 06:14:12;;;;;;;2.60;2.30;;;18.20;52.40;;;;;;6224756;23;20147;-82
2023/05/02 06:16:38;;;;;;;3.25;2.70;;;18.20;52.30;;;;;;6225380;23;20137;-84
2023/05/02 06:19:04;;;;;;;3.25;2.90;;;18.20;52.40;;;;;;6122762;23;20594;-83
2023/05/02 06:21:35;;;;;;;4.93;2.88;;;18.20;52.50;;;;;;6224870;23;20160;-83
2023/05/02 06:24:01;;;;;;;3.05;2.50;;;18.20;52.30;;;;;;6149966;23;20206;-84
2023/05/02 06:26:27;;;;;;;4.07;2.75;;;18.20;52.50;;;;;;6224738;23;20596;-82
2023/05/02 06:28:54;;;;;;;4.03;2.33;;;18.20;52.30;;;;;;6123030;23;20197;-85
2023/05/02 06:31:20;;;;;;;3.03;2.50;;;18.20;52.30;;;;;;6224541;23;20179;-85
2023/05/02 06:33:46;;;;;;;2.88;2.10;;;18.20;52.40;;;;;;6225306;23;20192;-83
2023/05/02 06:36:12;;;;;;;3.13;2.70;;;18.20;52.50;;;;;;6123810;23;20464;-85
2023/05/02 06:38:37;;;;;;;3.33;2.50;;;18.20;52.50;;;;;;6123731;23;20137;-83
2023/05/02 06:41:03;;;;;;;3.03;2.47;;;18.20;52.40;;;;;;6124243;23;20137;-85
2023/05/02 06:43:29;;;;;;;4.63;2.80;;;18.20;52.50;;;;;;6124247;23;20168;-84
2023/05/02 06:45:55;;;;;;;2.00;1.80;;;18.20;52.40;;;;;;6123825;23;20184;-83
2023/05/02 06:48:21;;;;;;;2.28;1.92;;;18.30;51.80;;;;;;6124666;23;20186;-84
2023/05/02 06:50:48;;;;;;;2.72;2.35;;;18.30;51.70;;;;;;6123913;23;20144;-86
2023/05/02 06:53:14;;;;;;;2.72;2.30;;;18.40;51.90;;;;;;6124171;23;20140;-84
2023/05/02 06:55:40;;;;;;;2.50;2.30;;;18.30;51.50;;;;;;6224730;23;20147;-83
2023/05/02 06:58:10;;;;;;;2.40;1.90;;;18.40;51.40;;;;;;6123694;23;20136;-84
2023/05/02 07:00:36;;;;;;;2.53;1.80;;;18.40;51.30;;;;;;6175557;23;20156;-84
2023/05/02 07:03:02;;;;;;;2.58;2.38;;;18.50;51.30;;;;;;6202263;23;20159;-85
2023/05/02 07:05:32;;;;;;;2.50;2.30;;;18.50;51.40;;;;;;6227267;23;20164;-83
2023/05/02 07:07:58;;;;;;;2.28;1.92;;;18.40;51.30;;;;;;6129824;23;20239;-84
2023/05/02 07:10:24;;;;;;;2.08;1.70;;;18.40;51.00;;;;;;6226940;23;20133;-85
2023/05/02 07:12:50;;;;;;;2.00;1.80;;;18.50;50.40;;;;;;6125443;23;20129;-84
2023/05/02 07:15:17;;;;;;;4.75;1.70;;;18.50;50.90;;;;;;6225407;23;20152;-83
2023/05/02 07:17:43;;;;;;;2.00;1.80;;;18.50;50.20;;;;;;6123521;23;20470;-84
2023/05/02 07:20:10;;;;;;;2.40;2.20;;;18.60;50.30;;;;;;6224780;23;20143;-86
2023/05/02 07:22:36;;;;;;;2.40;2.10;;;18.60;50.50;;;;;;6122628;23;20136;-84
2023/05/02 07:25:02;;;;;;;2.42;2.05;;;18.60;50.50;;;;;;6122530;23;20174;-84
2023/05/02 07:27:28;;;;;;;2.00;1.73;;;18.60;50.40;;;;;;6224378;23;20140;-82
2023/05/02 07:29:54;;;;;;;2.30;1.90;;;18.60;50.50;;;;;;6123817;23;20219;-82
2023/05/02 07:32:25;;;;;;;2.33;1.80;;;18.60;50.80;;;;;;6122910;23;20132;-85
2023/05/02 07:34:53;;;;;;;1.90;1.52;;;18.60;50.50;;;;;;6080279;23;20199;-82
2023/05/02 07:37:20;;;;;;;2.30;1.75;;;18.50;50.30;;;;;;6121052;23;20140;-84
2023/05/02 07:39:46;;;;;;;1.90;1.80;;;18.60;50.50;;;;;;6122879;23;20215;-84
2023/05/02 07:42:12;;;;;;;2.60;1.73;;;18.60;50.50;;;;;;6122344;23;20136;-85
2023/05/02 07:44:38;;;;;;;1.60;1.48;;;18.60;50.20;;;;;;6122659;23;20175;-83
2023/05/02 07:47:04;;;;;;;1.60;1.50;;;18.60;50.20;;;;;;6121220;23;20136;-83
2023/05/02 07:49:30;;;;;;;1.70;1.60;;;18.60;50.10;;;;;;6096654;23;20221;-84
2023/05/02 07:51:56;;;;;;;2.17;1.70;;;18.60;50.20;;;;;;6122490;23;20136;-85
2023/05/02 07:54:26;;;;;;;2.50;2.00;;;18.50;50.10;;;;;;6129383;23;20141;-82
2023/05/02 07:56:52;;;;;;;1.80;1.67;;;18.50;50.40;;;;;;6201930;23;20181;-85
2023/05/02 07:59:18;;;;;;;1.85;1.63;;;18.50;50.50;;;;;;6122741;23;20140;-83
2023/05/02 08:01:45;;;;;;;1.58;1.48;;;18.50;50.30;;;;;;6122721;23;20485;-81
2023/05/02 08:04:11;;;;;;;2.10;1.70;;;18.50;50.50;;;;;;6122560;23;20641;-83
2023/05/02 08:06:37;;;;;;;2.38;1.83;;;18.50;50.50;;;;;;6123158;23;20141;-82
2023/05/02 08:09:03;;;;;;;1.83;1.70;;;18.50;50.50;;;;;;6121158;23;20469;-84
2023/05/02 08:11:29;;;;;;;1.77;1.67;;;18.50;50.50;;;;;;6121266;23;20141;-82
2023/05/02 08:13:55;;;;;;;1.60;1.45;;;18.50;50.40;;;;;;6122762;23;20136;-81
2023/05/02 08:16:21;;;;;;;2.00;1.70;;;18.50;50.20;;;;;;6122849;23;20223;-85
2023/05/02 08:18:47;;;;;;;1.55;1.45;;;18.60;50.00;;;;;;6122774;23;20133;-83
2023/05/02 08:21:13;;;;;;;1.67;1.58;;;18.60;49.90;;;;;;6121048;23;20137;-81
2023/05/02 08:23:40;;;;;;;2.08;1.63;;;18.60;49.70;;;;;;6122147;23;20132;-81
2023/05/02 08:26:06;;;;;;;1.45;1.30;;;18.60;49.90;;;;;;6096525;23;20167;-84
2023/05/02 08:28:32;;;;;;;1.80;1.40;;;18.60;50.00;;;;;;6122032;23;20155;-84
2023/05/02 08:30:58;;;;;;;1.95;1.63;;;18.60;49.70;;;;;;6121966;23;20137;-84
2023/05/02 08:33:24;;;;;;;1.70;1.50;;;18.60;49.80;;;;;;6121748;22;20267;-84
2023/05/02 08:35:50;;;;;;;1.95;1.48;;;18.60;49.60;;;;;;6121946;23;20167;-84
2023/05/02 08:38:16;;;;;;;1.73;1.40;;;18.60;49.70;;;;;;6122113;23;20137;-82
2023/05/02 08:40:42;;;;;;;1.50;1.40;;;18.60;49.50;;;;;;6198311;23;20148;-83
2023/05/02 08:43:09;;;;;;;1.70;1.60;;;18.70;49.40;;;;;;6121613;23;20465;-82
2023/05/02 08:45:41;;;;;;;1.70;1.60;;;18.60;49.50;;;;;;6121982;23;20194;-82
2023/05/02 08:48:09;;;;;;;1.50;1.38;;;18.60;49.40;;;;;;6223458;23;20137;-82
2023/05/02 08:50:38;;;;;;;1.48;1.38;;;18.70;49.70;;;;;;6121994;23;20133;-85
2023/05/02 08:53:06;;;;;;;1.30;1.20;;;18.70;49.60;;;;;;6224719;23;20513;-82
2023/05/02 08:55:34;;;;;;;1.40;1.30;;;18.70;49.60;;;;;;6121463;23;20543;-83
2023/05/02 08:58:00;;;;;;;1.50;1.40;;;18.70;49.60;;;;;;6222963;23;20220;-82
2023/05/02 09:00:27;;;;;;;1.50;1.40;;;18.60;49.70;;;;;;6122182;23;20227;-82
2023/05/02 09:03:02;;;;;;;1.52;1.27;;;18.60;49.60;;;;;;6121827;23;20565;-85
2023/05/02 09:05:28;;;;;;;1.60;1.40;;;18.70;49.10;;;;;;6121712;23;20485;-83
2023/05/02 09:07:54;;;;;;;1.80;1.60;;;18.80;49.10;;;;;;6121434;23;20580;-83
2023/05/02 09:10:20;;;;;;;1.77;1.60;;;18.80;49.20;;;;;;6223495;23;20155;-84
2023/05/02 09:12:47;;;;;;;1.63;1.40;;;18.80;49.00;;;;;;6121441;23;20582;-85
2023/05/02 09:15:14;;;;;;;1.20;1.10;;;18.90;49.00;;;;;;6223473;23;20151;-86
2023/05/02 09:17:45;;;;;;;2.25;1.60;;;18.90;48.90;;;;;;6223076;23;20137;-84
2023/05/02 09:20:12;;;;;;;1.48;1.38;;;18.90;48.70;;;;;;6121803;23;20167;-82
2023/05/02 09:22:38;;;;;;;1.42;1.30;;;18.90;48.60;;;;;;6223504;23;20148;-82
2023/05/02 09:25:06;;;;;;;1.58;1.40;;;18.90;48.50;;;;;;6223566;23;20251;-83
2023/05/02 09:27:51;;;;;;;1.40;1.30;;;18.90;48.50;;;;;;6121285;23;20133;-86
2023/05/02 09:30:22;;;;;;;1.30;1.20;;;18.90;48.30;;;;;;6199709;23;20176;-84
2023/05/02 09:32:55;;;;;;;1.38;1.25;;;18.90;48.60;;;;;;6150734;23;20544;-80
2023/05/02 09:35:25;;;;;;;1.40;1.30;;;18.90;48.30;;;;;;6175035;23;20207;-82
2023/05/02 09:37:58;;;;;;;1.80;1.40;;;18.90;48.20;;;;;;6176539;23;20160;-83
2023/05/02 09:40:26;;;;;;;1.42;1.30;;;19.00;48.20;;;;;;6151075;23;20152;-85
2023/05/02 09:42:52;;;;;;;1.40;1.30;;;19.00;48.20;;;;;;6124441;23;20595;-82
2023/05/02 09:45:22;;;;;;;1.50;1.40;;;19.00;48.20;;;;;;6227543;23;20180;-83
2023/05/02 09:47:48;;;;;;;1.42;1.30;;;18.90;48.10;;;;;;6127875;23;20584;-83
2023/05/02 09:50:31;;;;;;;1.40;1.30;;;19.00;47.90;;;;;;6231216;23;20137;-84
2023/05/02 09:53:04;;;;;;;1.17;1.08;;;19.00;47.70;;;;;;6229745;23;20160;-83
2023/05/02 09:55:35;;;;;;;2.00;1.40;;;19.00;47.70;;;;;;6228856;23;20136;-81
2023/05/02 09:58:01;;;;;;;1.23;1.13;;;19.00;47.60;;;;;;6153736;23;20242;-84
2023/05/02 10:00:40;;;;;;;1.20;1.00;;;19.00;47.70;;;;;;6200961;23;20152;-87
2023/05/02 10:03:10;;;;;;;1.30;1.20;;;19.00;47.50;;;;;;6126852;23;20146;-82
2023/05/02 10:05:41;;;;;;;1.27;1.15;;;19.10;47.50;;;;;;6154718;23;20187;-82
2023/05/02 10:08:13;;;;;;;1.20;1.10;;;19.10;47.40;;;;;;6154159;23;20258;-83
2023/05/02 10:10:40;;;;;;;1.52;1.13;;;19.00;47.50;;;;;;6179565;23;20479;-83
2023/05/02 10:13:12;;;;;;;2.03;1.08;;;19.00;47.10;;;;;;6126482;23;20262;-83
2023/05/02 10:15:42;;;;;;;1.50;1.35;;;19.00;47.60;;;;;;6178250;23;20564;-85
2023/05/02 10:18:13;;;;;;;1.58;1.40;;;19.00;47.70;;;;;;6229109;23;20148;-83
2023/05/02 10:20:43;;;;;;;1.60;1.50;;;19.00;47.50;;;;;;6225652;23;20591;-83
2023/05/02 10:23:14;;;;;;;2.58;1.17;;;19.00;47.60;;;;;;6200958;23;20159;-83
2023/05/02 10:25:43;;;;;;;1.08;0.98;;;19.00;47.70;;;;;;6154021;23;20271;-85
2023/05/02 10:28:10;;;;;;;1.55;1.08;;;19.00;47.70;;;;;;6153919;23;20230;-87
2023/05/02 10:30:36;;;;;;;1.33;1.20;;;19.00;47.60;;;;;;6233128;23;20162;-83
2023/05/02 10:33:05;;;;;;;1.30;1.20;;;18.90;47.50;;;;;;6128926;23;20151;-81
2023/05/02 10:35:31;;;;;;;1.38;1.27;;;19.00;47.50;;;;;;6175809;23;20172;-84
2023/05/02 10:38:02;;;;;;;1.38;1.20;;;18.90;47.40;;;;;;6200716;23;20156;-82
2023/05/02 10:40:28;;;;;;;1.30;1.20;;;18.90;47.40;;;;;;6151701;23;20156;-85
2023/05/02 10:42:54;;;;;;;1.50;1.27;;;18.90;47.30;;;;;;6202570;23;20163;-84
2023/05/02 10:45:36;;;;;;;1.40;1.20;;;18.90;47.20;;;;;;6227948;23;20469;-81
2023/05/02 10:48:23;;;;;;;1.30;1.20;;;18.90;47.40;;;;;;6229034;23;20219;-83
2023/05/02 10:50:51;;;;;;;1.30;1.20;;;18.90;47.30;;;;;;6153522;23;20148;-80
2023/05/02 10:53:27;;;;;;;2.00;1.52;;;18.90;47.40;;;;;;6227222;23;20148;-82
2023/05/02 10:56:13;;;;;;;1.48;1.38;;;18.80;47.10;;;;;;6229598;23;20139;-83
2023/05/02 10:58:40;;;;;;;1.38;1.27;;;18.90;47.20;;;;;;6122831;23;20261;-82
2023/05/02 11:01:36;;;;;;;1.58;1.30;;;18.90;47.20;;;;;;6199270;23;20230;-84
2023/05/02 11:04:04;;;;;;;1.38;1.27;;;18.90;47.10;;;;;;6224228;23;20182;-84
2023/05/02 11:06:33;;;;;;;1.42;1.33;;;18.80;46.90;;;;;;6125506;23;20133;-82
2023/05/02 11:09:31;;;;;;;2.78;1.38;;;18.90;46.90;;;;;;6227155;23;20460;-87
2023/05/02 11:11:57;;;;;;;1.35;1.10;;;18.80;47.00;;;;;;6202133;23;20136;-85
2023/05/02 11:14:41;;;;;;;1.33;1.23;;;18.90;46.70;;;;;;6227634;23;20539;-82
2023/05/02 11:17:12;;;;;;;1.10;1.00;;;18.90;46.60;;;;;;6230581;23;20260;-81
2023/05/02 11:20:19;;;;;;;1.30;1.20;;;18.90;46.40;;;;;;6160658;23;20156;-81
2023/05/02 11:22:45;;;;;;;1.20;1.10;;;18.90;46.20;;;;;;6202881;23;20223;-81
2023/05/02 11:25:30;;;;;;;0.90;0.85;;;18.90;46.20;;;;;;6210991;23;20183;-80
2023/05/02 11:28:00;;;;;;;1.73;1.27;;;18.80;46.20;;;;;;6236349;23;20132;-80
2023/05/02 11:30:40;;;;;;;1.40;1.30;;;18.90;46.30;;;;;;6134673;23;20156;-79
2023/05/02 11:33:11;;;;;;;1.42;1.30;;;18.90;46.00;;;;;;6234136;23;20148;-80
2023/05/02 11:35:45;;;;;;;1.25;1.05;;;18.90;46.20;;;;;;6154534;23;20165;-82
2023/05/02 11:38:16;;;;;;;1.48;1.30;;;18.90;46.20;;;;;;6153321;23;20220;-80
2023/05/02 11:40:52;;;;;;;1.27;1.17;;;18.90;45.90;;;;;;6129065;23;20179;-81
2023/05/02 11:43:20;;;;;;;1.10;1.00;;;18.90;45.90;;;;;;6154580;23;20160;-79
2023/05/02 11:45:49;;;;;;;1.40;1.15;;;18.80;45.90;;;;;;6178267;23;20188;-82
2023/05/02 11:48:21;;;;;;;1.20;1.10;;;18.80;46.00;;;;;;6128899;23;20220;-80
2023/05/02 11:50:54;;;;;;;1.45;1.25;;;18.80;45.80;;;;;;6153514;23;20244;-81
2023/05/02 11:53:24;;;;;;;2.08;1.50;;;18.80;45.70;;;;;;6154364;23;20161;-80
2023/05/02 11:55:56;;;;;;;1.23;1.13;;;18.70;45.60;;;;;;6154711;23;20584;-81
2023/05/02 11:58:28;;;;;;;1.10;1.00;;;18.80;45.70;;;;;;6177459;23;20486;-80
2023/05/02 12:00:56;;;;;;;1.38;1.23;;;18.80;45.50;;;;;;6131505;23;20235;-80
2023/05/02 12:03:28;;;;;;;1.30;1.17;;;18.70;45.30;;;;;;6127514;23;20211;-84
2023/05/02 12:06:14;;;;;;;1.20;1.10;;;18.80;45.50;;;;;;6127375;23;20275;-81
2023/05/02 12:08:44;;;;;;;1.40;1.30;;;18.70;45.40;;;;;;6131541;23;20228;-80
2023/05/02 12:11:15;;;;;;;1.10;1.00;;;18.70;45.30;;;;;;6155932;23;20179;-81
2023/05/02 12:13:48;;;;;;;1.00;1.00;;;18.70;45.10;;;;;;6150475;23;20161;-85
2023/05/02 12:16:16;;;;;;;1.38;1.20;;;18.70;45.90;;;;;;6145438;23;20218;-82
2023/05/02 12:18:43;;;;;;;1.42;1.33;;;18.70;45.20;;;;;;6146031;23;20247;-82
2023/05/02 12:21:10;;;;;;;1.20;1.10;;;18.70;45.00;;;;;;6169442;23;20157;-83
2023/05/02 12:23:38;;;;;;;1.30;1.08;;;18.70;45.10;;;;;;6150432;23;20161;-81
2023/05/02 12:26:23;;;;;;;1.35;1.20;;;18.70;44.90;;;;;;6129178;23;20199;-80
2023/05/02 12:28:53;;;;;;;1.20;1.10;;;18.70;44.70;;;;;;6133078;23;20152;-80
2023/05/02 12:31:23;;;;;;;1.25;1.15;;;18.80;44.60;;;;;;6129351;23;20171;-83
2023/05/02 12:33:51;;;;;;;1.13;1.00;;;18.70;44.30;;;;;;6139939;23;20522;-81
2023/05/02 12:36:22;;;;;;;1.00;1.00;;;18.80;43.90;;;;;;6083531;23;20213;-81
2023/05/02 12:38:55;;;;;;;0.93;0.90;;;18.80;44.10;;;;;;6184592;23;20165;-80
2023/05/02 12:41:36;;;;;;;1.10;1.00;;;18.80;44.00;;;;;;6084019;23;20160;-80
2023/05/02 12:44:04;;;;;;;0.98;0.90;;;18.90;44.00;;;;;;6184027;23;20155;-80
2023/05/02 12:46:31;;;;;;;1.30;1.10;;;18.90;43.80;;;;;;6207634;23;20159;-81
2023/05/02 12:49:04;;;;;;;1.23;1.13;;;18.90;43.80;;;;;;6081751;23;20156;-80
2023/05/02 12:51:31;;;;;;;0.82;0.82;;;18.90;43.70;;;;;;6102581;23;20476;-81
2023/05/02 12:53:58;;;;;;;1.50;1.30;;;18.90;43.40;;;;;;6125896;23;20135;-80
2023/05/02 12:56:26;;;;;;;1.08;1.00;;;18.90;43.50;;;;;;6128950;23;20137;-80
2023/05/02 12:58:58;;;;;;;0.90;0.90;;;18.80;43.40;;;;;;6128816;23;20144;-80